Time;durP1;ratioP1;P1;durP2;ratioP2;P2;SDS_P1;SDS_P2;PMS_P1;PMS_P2;Temp;Humidity;BMP_temperature;BMP_pressure;BME280_temperature;BME280_humidity;BME280_pressure;Samples;Min_cycle;Max_cycle;Signal;HPM_P1;HPM_P2
2022/12/18 00:02:13;;;;;;;6.78;1.98;;;;;;;-0.47;100.00;101086.13;4949644;29;20052;-85
2022/12/18 00:04:39;;;;;;;3.92;1.75;;;;;;;-0.44;100.00;101080.19;4945073;28;20122;-85
2022/12/18 00:07:06;;;;;;;5.68;2.17;;;;;;;-0.42;100.00;101097.34;4945849;28;20197;-85
2022/12/18 00:09:33;;;;;;;5.60;1.90;;;;;;;-0.46;100.00;101111.03;4948813;28;20055;-86
2022/12/18 00:12:07;;;;;;;9.20;3.80;;;;;;;-0.51;100.00;101115.25;4946642;28;20066;-85
2022/12/18 00:14:41;;;;;;;6.38;2.38;;;;;;;-0.43;100.00;101113.63;4952200;29;20050;-85
2022/12/18 00:17:08;;;;;;;5.22;2.10;;;;;;;-0.52;100.00;101113.50;4953202;28;20055;-86
2022/12/18 00:19:35;;;;;;;6.22;2.20;;;;;;;-0.50;100.00;101095.50;4961308;28;20067;-85
2022/12/18 00:22:02;;;;;;;8.82;2.55;;;;;;;-0.45;100.00;101111.88;4950030;28;20520;-85
2022/12/18 00:24:29;;;;;;;6.05;2.28;;;;;;;-0.45;100.00;101115.31;4944341;29;20056;-85
2022/12/18 00:26:55;;;;;;;11.55;3.58;;;;;;;-0.77;100.00;101132.84;4953920;29;20464;-85
2022/12/18 00:29:22;;;;;;;11.05;3.13;;;;;;;-0.60;100.00;101140.84;4950684;28;20106;-86
2022/12/18 00:31:49;;;;;;;10.63;3.47;;;;;;;-0.86;100.00;101114.72;4947389;28;20048;-85
2022/12/18 00:34:16;;;;;;;9.02;3.65;;;;;;;-0.67;100.00;101131.31;4947001;29;20058;-85
2022/12/18 00:36:42;;;;;;;7.35;2.75;;;;;;;-0.63;100.00;101126.22;4962385;28;20051;-85
2022/12/18 00:39:11;;;;;;;15.30;6.22;;;;;;;-0.74;100.00;101139.75;4950429;28;20056;-85
2022/12/18 00:44:22;;;;;;;9.80;3.35;;;;;;;-0.70;100.00;101144.97;4949404;28;20048;-85
2022/12/18 00:46:49;;;;;;;12.48;4.13;;;;;;;-0.84;100.00;101129.31;4950465;28;20055;-85
2022/12/18 00:49:18;;;;;;;13.32;5.65;;;;;;;-0.89;100.00;101136.09;4965903;28;20077;-85
2022/12/18 00:51:46;;;;;;;11.45;4.53;;;;;;;-0.98;100.00;101121.38;4965543;28;20137;-84
2022/12/18 00:54:13;;;;;;;12.35;4.85;;;;;;;-0.92;100.00;101124.91;4966168;28;20051;-85
2022/12/18 00:56:40;;;;;;;12.30;4.68;;;;;;;-0.95;100.00;101146.28;4952581;28;20501;-85
2022/12/18 00:59:15;;;;;;;9.70;4.13;;;;;;;-0.89;100.00;101127.53;4948140;28;20051;-85
2022/12/18 01:01:42;;;;;;;9.68;3.53;;;;;;;-0.79;100.00;101131.97;4953766;28;20126;-85
2022/12/18 01:04:09;;;;;;;8.45;3.45;;;;;;;-0.94;100.00;101101.72;4953070;28;20047;-85
2022/12/18 01:06:36;;;;;;;10.27;4.07;;;;;;;-0.87;100.00;101129.25;4953702;29;20055;-85
2022/12/18 01:09:03;;;;;;;14.50;6.15;;;;;;;-0.90;100.00;101128.34;4956057;28;20508;-85
2022/12/18 01:11:29;;;;;;;15.07;4.85;;;;;;;-0.90;100.00;101154.94;4953733;28;20512;-85
2022/12/18 01:13:56;;;;;;;12.38;4.85;;;;;;;-1.01;100.00;101148.75;4954762;28;20470;-85
2022/12/18 01:16:23;;;;;;;10.38;4.03;;;;;;;-1.15;100.00;101130.56;4967497;28;20477;-85
2022/12/18 01:18:54;;;;;;;11.55;4.32;;;;;;;-1.10;100.00;101138.31;4957089;29;20047;-84
2022/12/18 01:21:23;;;;;;;9.75;4.18;;;;;;;-0.94;100.00;101150.56;4963349;28;20051;-84
2022/12/18 01:23:54;;;;;;;10.82;3.92;;;;;;;-1.17;100.00;101120.25;4963390;29;20051;-84
2022/12/18 01:26:21;;;;;;;11.25;4.60;;;;;;;-1.03;100.00;101140.16;4963791;29;20051;-84
2022/12/18 01:28:48;;;;;;;10.98;3.58;;;;;;;-1.24;100.00;101094.41;4959161;28;20047;-84
2022/12/18 01:31:21;;;;;;;10.07;2.90;;;;;;;-0.92;100.00;101148.91;4962349;29;20051;-84
2022/12/18 01:33:49;;;;;;;9.27;3.42;;;;;;;-1.03;100.00;101148.72;4963757;29;20051;-84
2022/12/18 01:36:18;;;;;;;8.32;3.28;;;;;;;-1.28;100.00;101101.19;4962849;29;20055;-84
2022/12/18 01:38:46;;;;;;;8.50;2.92;;;;;;;-0.96;100.00;101139.41;4963631;29;20047;-84
2022/12/18 01:41:18;;;;;;;8.68;3.33;;;;;;;-1.57;100.00;101054.47;4963901;28;20067;-84
2022/12/18 01:43:46;;;;;;;10.00;4.07;;;;;;;-1.39;100.00;101118.13;4963456;28;20051;-84
2022/12/18 01:46:14;;;;;;;9.65;3.70;;;;;;;-1.41;100.00;101118.09;4963999;29;20437;-84
2022/12/18 01:48:42;;;;;;;12.02;4.28;;;;;;;-1.48;100.00;101108.56;4962561;29;20058;-84
2022/12/18 01:51:11;;;;;;;7.22;3.08;;;;;;;-1.19;100.00;101147.63;4960573;29;20063;-84
2022/12/18 01:53:40;;;;;;;9.80;3.53;;;;;;;-1.32;100.00;101117.41;4961254;29;20047;-85
2022/12/18 01:56:09;;;;;;;10.93;4.07;;;;;;;-1.52;100.00;101099.09;4951083;29;20061;-84
2022/12/18 01:58:41;;;;;;;9.52;3.50;;;;;;;-1.56;100.00;101105.88;4962942;28;20063;-85
2022/12/18 02:01:08;;;;;;;8.25;3.97;;;;;;;-1.47;100.00;101112.88;4961579;29;20561;-84
2022/12/18 02:03:36;;;;;;;7.22;2.90;;;;;;;-1.73;100.00;101073.88;4961629;28;20058;-84
2022/12/18 02:06:06;;;;;;;8.88;3.30;;;;;;;-1.27;100.00;101143.19;4959591;29;20478;-84
2022/12/18 02:08:37;;;;;;;9.75;3.88;;;;;;;-1.47;100.00;101153.97;4959682;29;20047;-85
2022/12/18 02:11:24;;;;;;;9.82;4.05;;;;;;;-1.80;100.00;101108.84;4958318;29;20058;-84
2022/12/18 02:13:57;;;;;;;8.00;3.15;;;;;;;-1.41;100.00;101154.06;4960236;28;20102;-83
2022/12/18 02:16:47;;;;;;;9.73;4.30;;;;;;;-1.78;100.00;101094.34;4958886;29;20057;-84
2022/12/18 02:19:32;;;;;;;10.75;3.95;;;;;;;-1.50;100.00;101164.19;4958078;29;20047;-83
2022/12/18 02:22:05;;;;;;;7.57;2.97;;;;;;;-1.46;100.00;101171.09;4957251;29;20055;-84
2022/12/18 02:24:59;;;;;;;7.82;3.00;;;;;;;-1.65;100.00;101108.25;4959107;28;20043;-84
2022/12/18 02:27:30;;;;;;;7.88;3.25;;;;;;;-1.52;100.00;101155.59;4943665;29;20043;-84
2022/12/18 02:29:59;;;;;;;6.30;2.63;;;;;;;-1.67;100.00;101127.03;4956343;29;20059;-83
2022/12/18 02:32:30;;;;;;;7.15;2.47;;;;;;;-1.74;100.00;101100.38;4956006;28;20051;-84
2022/12/18 02:34:59;;;;;;;6.20;2.30;;;;;;;-1.81;100.00;101080.56;4958908;28;20052;-84
2022/12/18 02:37:27;;;;;;;10.45;3.40;;;;;;;-1.81;100.00;101119.06;4946110;29;20055;-84
2022/12/18 02:39:57;;;;;;;6.25;2.53;;;;;;;-1.66;100.00;101116.81;4957407;29;20489;-84
2022/12/18 02:42:24;;;;;;;9.48;2.55;;;;;;;-1.62;100.00;101135.72;4956728;29;20055;-84
2022/12/18 02:44:51;;;;;;;4.72;2.25;;;;;;;-1.84;100.00;101101.03;4957348;29;20051;-84
2022/12/18 02:47:22;;;;;;;6.28;2.42;;;;;;;-1.78;100.00;101103.75;4958566;28;20105;-82
2022/12/18 02:50:07;;;;;;;6.07;2.13;;;;;;;-1.52;100.00;101163.28;4957257;29;20520;-84
2022/12/18 02:52:46;;;;;;;8.50;2.25;;;;;;;-1.51;100.00;101162.44;4956827;29;20059;-84
2022/12/18 02:55:21;;;;;;;5.85;1.90;;;;;;;-1.41;100.00;101173.75;4957492;28;20382;-84
2022/12/18 02:58:16;;;;;;;3.28;1.60;;;;;;;-1.45;100.00;101177.97;4960028;28;20094;-83
2022/12/18 03:00:53;;;;;;;3.78;1.65;;;;;;;-1.75;100.00;101130.34;4953396;29;20043;-82
2022/12/18 03:03:29;;;;;;;4.40;1.90;;;;;;;-1.81;100.00;101109.66;4957571;29;20059;-83
2022/12/18 03:06:04;;;;;;;5.50;1.70;;;;;;;-1.62;100.00;101157.09;4959229;28;20082;-84
2022/12/18 03:08:39;;;;;;;2.97;1.52;;;;;;;-1.66;100.00;101142.50;4958894;29;20055;-84
2022/12/18 03:11:10;;;;;;;3.05;1.50;;;;;;;-2.04;100.00;101096.38;4957389;29;20047;-84
2022/12/18 03:13:40;;;;;;;4.03;2.00;;;;;;;-1.92;100.00;101137.69;4958754;29;20062;-84
2022/12/18 03:16:12;;;;;;;10.63;3.33;;;;;;;-1.98;100.00;101124.75;4958262;29;20050;-84
2022/12/18 03:18:46;;;;;;;6.88;2.58;;;;;;;-1.67;100.00;101165.56;4957087;28;20210;-83
2022/12/18 03:21:15;;;;;;;6.20;2.25;;;;;;;-1.69;100.00;101173.22;4957147;28;20055;-85
2022/12/18 03:23:49;;;;;;;5.57;2.05;;;;;;;-1.99;100.00;101122.16;4957807;28;20079;-83
2022/12/18 03:26:19;;;;;;;7.47;2.58;;;;;;;-2.10;100.00;101109.97;4956902;29;20060;-84
2022/12/18 03:28:53;;;;;;;7.53;2.70;;;;;;;-2.24;100.00;101095.13;4956620;29;20049;-83
2022/12/18 03:31:22;;;;;;;7.15;2.22;;;;;;;-1.96;100.00;101141.03;4957388;28;20073;-84
2022/12/18 03:33:56;;;;;;;9.93;2.97;;;;;;;-2.32;100.00;101095.84;4957676;28;20054;-84
2022/12/18 03:36:23;;;;;;;8.25;3.03;;;;;;;-2.67;100.00;101065.19;4957103;29;20055;-84
2022/12/18 03:38:51;;;;;;;8.23;3.45;;;;;;;-2.60;100.00;101098.63;4957177;29;20174;-85
2022/12/18 03:41:35;;;;;;;7.68;3.25;;;;;;;-2.39;100.00;101140.16;4957056;29;20047;-84
2022/12/18 03:44:10;;;;;;;11.77;3.40;;;;;;;-2.68;100.00;101085.66;4956960;29;20478;-84
2022/12/18 03:47:13;;;;;;;9.38;3.72;;;;;;;-2.37;100.00;101170.97;4957241;28;20051;-84
2022/12/18 03:50:03;;;;;;;8.75;3.33;;;;;;;-2.24;100.00;101172.09;4972195;28;20063;-84
2022/12/18 03:53:08;;;;;;;8.00;3.20;;;;;;;-2.29;100.00;101162.59;4943575;29;20058;-84
2022/12/18 03:55:36;;;;;;;7.25;3.28;;;;;;;-2.55;100.00;101121.00;4960982;28;20055;-84
2022/12/18 03:58:06;;;;;;;11.95;4.85;;;;;;;-2.75;100.00;101122.25;4958067;29;20058;-84
2022/12/18 04:00:34;;;;;;;8.90;3.15;;;;;;;-2.64;100.00;101133.59;4954760;28;20122;-84
2022/12/18 04:03:03;;;;;;;8.75;3.97;;;;;;;-2.76;100.00;101110.25;4949542;29;20056;-84
2022/12/18 04:05:34;;;;;;;11.98;4.22;;;;;;;-2.74;100.00;101131.69;4950501;29;20054;-83
2022/12/18 04:08:01;;;;;;;14.07;4.90;;;;;;;-2.72;100.00;101146.25;4956228;28;20066;-84
2022/12/18 04:10:29;;;;;;;10.05;4.05;;;;;;;-3.03;100.00;101129.25;4954101;29;20093;-83
2022/12/18 04:12:57;;;;;;;11.77;4.13;;;;;;;-2.94;100.00;101164.50;4955639;29;20110;-84
2022/12/18 04:15:24;;;;;;;8.93;3.60;;;;;;;-3.15;100.00;101104.25;4956518;28;20401;-83
2022/12/18 04:17:51;;;;;;;5.43;2.40;;;;;;;-2.92;100.00;101126.97;4955677;28;20469;-84
2022/12/18 04:20:18;;;;;;;9.57;3.50;;;;;;;-3.09;100.00;101114.63;4954632;28;20482;-84
2022/12/18 04:22:45;;;;;;;9.48;3.05;;;;;;;-2.85;100.00;101169.88;4955630;28;20066;-83
2022/12/18 04:25:12;;;;;;;8.98;3.17;;;;;;;-3.11;100.00;101100.06;4954913;28;20051;-83
2022/12/18 04:27:39;;;;;;;6.85;2.30;;;;;;;-2.67;100.00;101164.31;4954166;29;20493;-83
2022/12/18 04:30:06;;;;;;;9.90;4.90;;;;;;;-2.70;100.00;101164.22;4953510;29;20047;-83
2022/12/18 04:32:34;;;;;;;9.98;5.15;;;;;;;-2.76;100.00;101164.97;4955088;28;20051;-83
2022/12/18 04:35:01;;;;;;;6.43;2.55;;;;;;;-2.61;100.00;101176.41;4953179;29;20055;-83
2022/12/18 04:37:28;;;;;;;7.65;2.55;;;;;;;-2.62;100.00;101167.84;4955195;28;20051;-83
2022/12/18 04:39:55;;;;;;;8.48;2.85;;;;;;;-3.02;100.00;101123.31;4954578;29;20055;-84
2022/12/18 04:42:21;;;;;;;9.50;3.47;;;;;;;-2.84;100.00;101151.06;4954947;28;20047;-83
2022/12/18 04:44:48;;;;;;;7.97;2.78;;;;;;;-2.98;100.00;101140.50;4955498;29;20043;-83
2022/12/18 04:47:15;;;;;;;8.32;3.05;;;;;;;-3.12;100.00;101111.97;4954210;29;20054;-83
2022/12/18 04:49:42;;;;;;;7.60;2.85;;;;;;;-2.71;100.00;101181.31;4954261;29;20073;-83
2022/12/18 04:52:08;;;;;;;6.60;2.65;;;;;;;-2.88;100.00;101145.00;4937977;29;20055;-83
2022/12/18 04:54:35;;;;;;;7.68;3.22;;;;;;;-2.68;100.00;101160.84;4954053;29;20050;-84
2022/12/18 04:57:02;;;;;;;6.43;2.40;;;;;;;-2.62;100.00;101126.81;4956066;28;20122;-83
2022/12/18 04:59:29;;;;;;;7.45;2.40;;;;;;;-2.22;100.00;101149.91;4953757;29;20051;-84
2022/12/18 05:01:56;;;;;;;6.93;2.50;;;;;;;-1.85;100.00;101161.78;4954067;29;20079;-84
2022/12/18 05:04:22;;;;;;;6.53;1.92;;;;;;;-1.67;100.00;101168.97;4958459;29;20538;-84
2022/12/18 05:06:49;;;;;;;4.72;2.03;;;;;;;-1.67;100.00;101145.03;4950104;29;20048;-84
2022/12/18 05:09:16;;;;;;;6.97;2.40;;;;;;;-1.55;100.00;101145.25;4954647;29;20051;-84
2022/12/18 05:11:45;;;;;;;4.45;1.90;;;;;;;-1.63;100.00;101095.44;4957993;29;20102;-84
2022/12/18 05:14:11;;;;;;;4.80;1.80;;;;;;;-1.67;100.00;101055.16;4958563;29;20047;-84
2022/12/18 05:16:38;;;;;;;6.90;2.00;;;;;;;-1.24;100.00;101114.97;4959446;28;20055;-84
2022/12/18 05:19:05;;;;;;;4.97;2.00;;;;;;;-1.21;100.00;101123.59;4959210;28;20055;-84
2022/12/18 05:21:31;;;;;;;5.43;1.75;;;;;;;-1.06;100.00;101129.81;4957392;29;20047;-84
2022/12/18 05:23:59;;;;;;;7.97;2.10;;;;;;;-1.03;100.00;101106.75;4953942;29;20048;-83
2022/12/18 05:26:25;;;;;;;4.85;1.40;;;;;;;-1.13;100.00;101081.72;4948868;29;20062;-84
2022/12/18 05:28:52;;;;;;;2.67;1.50;;;;;;;-0.81;100.00;101131.09;4958093;29;20051;-85
2022/12/18 05:31:19;;;;;;;5.60;1.90;;;;;;;-1.43;100.00;101047.88;4958847;28;20445;-84
2022/12/18 05:33:46;;;;;;;3.47;1.63;;;;;;;-1.29;100.00;101078.94;4958293;29;20058;-84
2022/12/18 05:36:12;;;;;;;2.60;1.50;;;;;;;-1.12;100.00;101088.59;4950121;29;20052;-84
2022/12/18 05:38:40;;;;;;;3.03;1.50;;;;;;;-1.40;100.00;101029.94;4969879;28;20050;-84
2022/12/18 05:41:08;;;;;;;3.33;1.65;;;;;;;-1.12;100.00;101075.75;4960296;28;20521;-83
2022/12/18 05:43:36;;;;;;;3.38;1.55;;;;;;;-0.80;100.00;101102.84;4945891;28;20050;-83
2022/12/18 05:46:10;;;;;;;5.43;1.75;;;;;;;-1.13;100.00;101059.47;4956148;28;20086;-83
2022/12/18 05:48:37;;;;;;;3.15;1.73;;;;;;;-1.02;100.00;101081.06;4944101;29;20079;-83
2022/12/18 05:51:10;;;;;;;4.20;1.65;;;;;;;-1.07;100.00;101064.69;4950290;29;20055;-84
2022/12/18 05:53:38;;;;;;;4.20;1.70;;;;;;;-1.04;100.00;101051.06;4967817;28;20044;-83
2022/12/18 05:56:14;;;;;;;3.60;1.70;;;;;;;-0.78;100.00;101090.84;4968616;28;20047;-83
2022/12/18 05:58:41;;;;;;;4.20;1.80;;;;;;;-1.09;100.00;101040.69;4958119;28;20473;-83
2022/12/18 06:01:15;;;;;;;3.58;1.58;;;;;;;-0.67;100.00;101106.44;4952728;28;20143;-83
2022/12/18 06:03:43;;;;;;;3.83;1.85;;;;;;;-0.85;100.00;101071.03;4963219;28;20055;-83
2022/12/18 06:06:27;;;;;;;6.22;2.00;;;;;;;-0.66;100.00;101105.56;4950441;28;20048;-83
2022/12/18 06:08:55;;;;;;;4.80;2.08;;;;;;;-0.81;100.00;101105.38;4942786;29;20052;-83
2022/12/18 06:11:24;;;;;;;5.32;2.08;;;;;;;-1.13;100.00;101076.59;4950415;28;20059;-83
2022/12/18 06:13:53;;;;;;;5.38;1.88;;;;;;;-1.10;100.00;101082.63;4956052;28;20058;-83
2022/12/18 06:16:26;;;;;;;4.35;1.90;;;;;;;-1.00;100.00;101112.78;4957517;28;20057;-83
2022/12/18 06:18:53;;;;;;;5.32;1.77;;;;;;;-1.04;100.00;101108.44;4956066;28;20482;-83
2022/12/18 06:21:20;;;;;;;4.13;1.67;;;;;;;-1.17;100.00;101078.25;4949198;29;20062;-83
2022/12/18 06:23:46;;;;;;;5.07;1.98;;;;;;;-1.00;100.00;101110.22;4957041;28;20047;-82
2022/12/18 06:26:16;;;;;;;5.60;2.10;;;;;;;-1.43;100.00;101050.44;4959351;28;20054;-82
2022/12/18 06:28:43;;;;;;;4.65;2.10;;;;;;;-1.32;100.00;101075.44;4954888;28;20417;-82
2022/12/18 06:31:10;;;;;;;3.95;1.80;;;;;;;-1.17;100.00;101109.97;4950181;29;20058;-82
2022/12/18 06:33:38;;;;;;;5.60;2.00;;;;;;;-1.22;100.00;101093.59;4968670;28;20561;-82
2022/12/18 06:36:07;;;;;;;4.85;1.85;;;;;;;-1.16;100.00;101108.25;4954235;28;20079;-82
2022/12/18 06:38:35;;;;;;;4.20;2.10;;;;;;;-1.17;100.00;101114.22;4970102;28;20121;-83
2022/12/18 06:41:11;;;;;;;4.28;1.67;;;;;;;-1.56;100.00;101041.69;4959339;28;20058;-82
2022/12/18 06:43:38;;;;;;;6.10;2.05;;;;;;;-1.57;100.00;101046.78;4955255;28;20051;-83
2022/12/18 06:46:06;;;;;;;6.03;2.30;;;;;;;-1.55;100.00;101063.94;4956657;28;20055;-82
2022/12/18 06:48:33;;;;;;;4.43;2.13;;;;;;;-1.30;100.00;101081.47;4955801;28;20055;-83
2022/12/18 06:51:02;;;;;;;5.97;2.17;;;;;;;-1.56;100.00;101030.50;4944351;29;20051;-82
2022/12/18 06:53:32;;;;;;;4.95;2.05;;;;;;;-1.27;100.00;101089.22;4961844;28;20382;-82
2022/12/18 06:56:04;;;;;;;6.10;2.65;;;;;;;-1.58;100.00;101048.47;4954810;29;20485;-82
2022/12/18 06:58:36;;;;;;;7.03;2.60;;;;;;;-1.36;100.00;101087.38;4956062;28;20062;-82
2022/12/18 07:01:06;;;;;;;5.57;2.30;;;;;;;-1.36;100.00;101079.66;4953098;29;20039;-84
2022/12/18 07:03:38;;;;;;;6.65;2.47;;;;;;;-1.18;100.00;101110.78;4948411;29;20051;-83
2022/12/18 07:06:05;;;;;;;7.17;2.63;;;;;;;-1.30;100.00;101087.47;4951898;28;20040;-83
2022/12/18 07:08:33;;;;;;;6.28;2.78;;;;;;;-1.61;100.00;101070.66;4948451;29;20352;-82
2022/12/18 07:11:03;;;;;;;7.07;2.50;;;;;;;-1.70;100.00;101055.09;4955254;28;20110;-83
2022/12/18 07:13:33;;;;;;;7.30;2.85;;;;;;;-1.32;100.00;101102.00;4959869;28;20055;-83
2022/12/18 07:16:14;;;;;;;6.65;2.55;;;;;;;-1.53;100.00;101074.22;4949057;29;20048;-82
2022/12/18 07:18:49;;;;;;;7.18;2.75;;;;;;;-1.32;100.00;101108.84;4952329;28;20055;-83
2022/12/18 07:21:19;;;;;;;8.15;3.42;;;;;;;-1.16;100.00;101113.41;4950155;28;20406;-81
2022/12/18 07:23:47;;;;;;;6.82;2.63;;;;;;;-1.27;100.00;101084.09;4952211;28;20059;-83
2022/12/18 07:26:17;;;;;;;7.13;2.83;;;;;;;-1.28;100.00;101067.78;4956302;28;20051;-82
2022/12/18 07:28:47;;;;;;;10.45;3.50;;;;;;;-1.44;100.00;101046.13;4962685;28;20050;-83
2022/12/18 07:31:16;;;;;;;8.98;3.78;;;;;;;-1.43;100.00;101035.03;4953280;28;20055;-82
2022/12/18 07:33:45;;;;;;;7.60;2.65;;;;;;;-0.91;100.00;101098.38;4966264;28;20047;-81
2022/12/18 07:36:12;;;;;;;7.53;2.55;;;;;;;-1.15;100.00;101049.19;4967110;28;20047;-80
2022/12/18 07:38:42;;;;;;;8.02;3.35;;;;;;;-0.72;100.00;101108.06;4951074;28;20047;-80
2022/12/18 07:41:12;;;;;;;11.10;4.30;;;;;;;-0.90;100.00;101074.38;4966017;28;20106;-81
2022/12/18 07:43:41;;;;;;;9.55;3.35;;;;;;;-1.07;100.00;101046.72;4957333;28;20110;-81
2022/12/18 07:46:09;;;;;;;9.55;3.53;;;;;;;-0.75;100.00;101063.47;4948819;28;20058;-82
2022/12/18 07:48:38;;;;;;;11.20;3.67;;;;;;;-1.00;100.00;101016.84;4967613;28;20497;-81
2022/12/18 07:51:06;;;;;;;7.78;2.85;;;;;;;-0.64;100.00;101054.16;4954173;28;20489;-80
2022/12/18 07:53:35;;;;;;;6.38;2.47;;;;;;;-0.91;100.00;101003.25;4950278;29;20421;-81
2022/12/18 07:56:05;;;;;;;7.78;3.13;;;;;;;-0.99;100.00;100974.88;4950328;28;20043;-81
2022/12/18 07:58:51;;;;;;;8.85;3.88;;;;;;;-0.70;100.00;100990.66;4947942;28;20055;-80
2022/12/18 08:01:18;;;;;;;8.85;3.78;;;;;;;-0.45;100.00;101020.13;4947434;28;20051;-80
2022/12/18 08:03:46;;;;;;;13.10;5.82;;;;;;;-0.79;100.00;100991.41;4956662;28;20450;-81
2022/12/18 08:06:13;;;;;;;16.73;6.82;;;;;;;-0.81;100.00;100998.25;4954241;28;20047;-81
2022/12/18 08:08:42;;;;;;;9.07;3.97;;;;;;;-0.73;100.00;101018.91;4960601;28;20055;-82
2022/12/18 08:11:09;;;;;;;8.27;3.15;;;;;;;-0.43;100.00;101030.44;4948695;28;20142;-80
2022/12/18 08:13:41;;;;;;;10.80;4.32;;;;;;;-0.30;100.00;101058.06;4945451;28;20055;-80
2022/12/18 08:16:09;;;;;;;8.57;3.13;;;;;;;-0.52;100.00;101007.19;4948990;29;20135;-83
2022/12/18 08:18:37;;;;;;;8.20;3.20;;;;;;;-0.15;100.00;101067.66;4953784;29;20055;-83
2022/12/18 08:21:11;;;;;;;7.65;2.95;;;;;;;-0.26;100.00;101028.94;4952863;28;20051;-81
2022/12/18 08:23:39;;;;;;;5.72;2.50;;;;;;;-0.39;100.00;101030.50;4949978;29;20449;-81
2022/12/18 08:26:09;;;;;;;8.38;3.35;;;;;;;-0.23;100.00;101036.69;4949254;28;20188;-82
2022/12/18 08:28:40;;;;;;;7.50;3.03;;;;;;;-0.09;100.00;101033.38;4955071;28;20497;-83
2022/12/18 08:31:08;;;;;;;10.27;4.30;;;;;;;-0.06;100.00;101023.13;4957042;28;20110;-83
2022/12/18 08:33:37;;;;;;;9.77;4.15;;;;;;;-0.50;100.00;100939.44;4966120;28;20051;-83
2022/12/18 08:36:05;;;;;;;9.75;4.28;;;;;;;-0.39;100.00;100970.44;4974689;28;20039;-83
2022/12/18 08:38:32;;;;;;;9.32;3.45;;;;;;;-0.48;100.00;100965.19;4954394;28;20065;-84
2022/12/18 08:41:00;;;;;;;10.25;3.97;;;;;;;-0.35;100.00;100969.66;4957150;29;20043;-83
2022/12/18 08:46:20;;;;;;;10.55;4.13;;;;;;;-0.12;100.00;100997.34;4972552;28;20054;-83
2022/12/18 08:48:48;;;;;;;9.57;3.90;;;;;;;0.03;100.00;101012.94;4956853;28;20066;-83
2022/12/18 08:51:19;;;;;;;8.38;3.53;;;;;;;-0.07;100.00;100975.94;4949938;29;20051;-84
2022/12/18 08:53:47;;;;;;;17.27;6.75;;;;;;;-0.60;100.00;100902.50;4960221;29;20575;-83
2022/12/18 08:56:15;;;;;;;12.10;5.15;;;;;;;-0.18;100.00;100956.94;4959531;29;20135;-83
2022/12/18 08:58:42;;;;;;;7.32;3.20;;;;;;;-0.15;100.00;100920.94;4957102;28;20516;-83
2022/12/18 09:01:13;;;;;;;9.45;4.38;;;;;;;0.41;100.00;101004.72;4967707;28;20058;-82
2022/12/18 09:03:43;;;;;;;7.97;3.40;;;;;;;-0.27;100.00;100895.94;4965221;28;20086;-84
2022/12/18 09:06:14;;;;;;;10.38;5.18;;;;;;;0.36;100.00;100975.47;4963501;28;20437;-85
2022/12/18 09:08:43;;;;;;;12.43;5.72;;;;;;;0.11;100.00;100922.91;4983647;28;20078;-84
2022/12/18 09:11:24;;;;;;;10.45;3.80;;;;;;;0.57;100.00;100946.44;4952002;29;20115;-84
2022/12/18 09:13:54;;;;;;;9.20;3.63;;;;;;;1.15;100.00;100987.13;4955842;28;20051;-83
2022/12/18 09:16:27;;;;;;;7.78;3.30;;;;;;;1.31;100.00;100951.97;4960982;28;20060;-84
2022/12/18 09:18:59;;;;;;;6.10;2.40;;;;;;;1.71;100.00;100980.50;4961395;28;20055;-81
2022/12/18 09:21:32;;;;;;;7.57;2.75;;;;;;;1.28;100.00;100914.13;4968060;28;20086;-84
2022/12/18 09:24:05;;;;;;;8.60;3.10;;;;;;;1.50;100.00;100945.16;4963494;28;20086;-82
2022/12/18 09:26:35;;;;;;;7.50;2.72;;;;;;;1.56;100.00;100910.75;4975322;28;20043;-84
2022/12/18 09:29:07;;;;;;;8.45;3.63;;;;;;;1.78;100.00;100915.09;4962933;29;20119;-84
2022/12/18 09:31:38;;;;;;;6.43;2.67;;;;;;;2.07;100.00;100929.75;4965563;28;20058;-84
2022/12/18 09:34:08;;;;;;;7.55;3.03;;;;;;;2.20;100.00;100894.47;4966620;28;20051;-85
2022/12/18 09:36:35;;;;;;;7.10;2.53;;;;;;;2.40;100.00;100858.25;4966268;28;20880;-85
2022/12/18 09:39:02;;;;;;;8.38;2.97;;;;;;;2.66;100.00;100856.47;4964725;28;20055;-85
2022/12/18 09:41:42;;;;;;;10.35;3.13;;;;;;;3.61;100.00;100955.25;4973349;28;20047;-84
2022/12/18 09:44:31;;;;;;;6.85;2.83;;;;;;;3.90;100.00;100957.66;4965123;28;20051;-85
2022/12/18 09:46:58;;;;;;;13.63;3.72;;;;;;;4.02;100.00;100948.97;4975133;28;20458;-84
2022/12/18 09:49:30;;;;;;;19.10;4.43;;;;;;;4.07;100.00;100907.44;4958274;28;20047;-84
2022/12/18 09:52:11;;;;;;;12.68;5.38;;;;;;;4.18;100.00;100898.72;4957232;28;20050;-84
2022/12/18 09:54:41;;;;;;;8.45;3.17;;;;;;;4.19;100.00;100884.03;4949566;29;20405;-84
2022/12/18 09:57:21;;;;;;;10.82;2.90;;;;;;;4.08;100.00;100836.63;4976530;28;20051;-85
2022/12/18 09:59:56;;;;;;;15.45;4.10;;;;;;;4.50;100.00;100918.31;4955721;28;20458;-84
2022/12/18 10:02:30;;;;;;;12.35;4.18;;;;;;;4.40;100.00;100863.97;4960890;28;20047;-85
2022/12/18 10:05:08;;;;;;;11.68;4.68;;;;;;;4.83;100.00;100934.41;4956622;29;20089;-85
2022/12/18 10:07:52;;;;;;;11.88;5.35;;;;;;;4.96;100.00;100927.34;4961474;28;20561;-85
2022/12/18 10:10:34;;;;;;;14.07;4.88;;;;;;;4.65;100.00;100856.78;4969864;28;20109;-84
2022/12/18 10:13:25;;;;;;;13.25;5.72;;;;;;;4.66;100.00;100842.97;4948557;29;20051;-85
2022/12/18 10:16:26;;;;;;;13.98;5.00;;;;;;;5.36;100.00;100921.66;4962076;28;20059;-86
2022/12/18 10:19:24;;;;;;;12.32;4.65;;;;;;;5.07;100.00;100883.09;4955852;28;20102;-86
2022/12/18 10:22:18;;;;;;;12.85;3.97;;;;;;;5.37;100.00;100922.53;4962934;28;20048;-84
2022/12/18 10:24:54;;;;;;;18.15;5.20;;;;;;;5.15;100.00;100902.03;4968708;28;20123;-85
2022/12/18 10:27:28;;;;;;;16.25;5.28;;;;;;;5.08;100.00;100874.44;4958574;28;20408;-86
2022/12/18 10:29:57;;;;;;;13.63;5.03;;;;;;;5.48;100.00;100915.44;4956554;28;20058;-85
2022/12/18 10:32:29;;;;;;;15.20;5.25;;;;;;;5.38;100.00;100893.94;4969223;28;20058;-85
2022/12/18 10:35:00;;;;;;;17.63;4.97;;;;;;;5.60;100.00;100888.47;4969896;28;20450;-85
2022/12/18 10:37:29;;;;;;;15.27;4.28;;;;;;;5.49;100.00;100868.69;4957267;28;20118;-85
2022/12/18 10:40:15;;;;;;;10.85;4.90;;;;;;;5.70;100.00;100879.63;4953776;29;20063;-84
2022/12/18 10:43:04;;;;;;;19.17;4.63;;;;;;;5.69;100.00;100867.53;4956258;28;20130;-86
2022/12/18 10:45:33;;;;;;;9.18;3.58;;;;;;;5.59;100.00;100843.41;4955046;28;20070;-84
2022/12/18 10:48:00;;;;;;;20.92;4.40;;;;;;;5.28;100.00;100801.50;4956405;28;20101;-84
2022/12/18 10:50:37;;;;;;;11.75;3.10;;;;;;;5.57;100.00;100844.34;4955240;29;20548;-84
2022/12/18 10:53:27;;;;;;;16.50;4.55;;;;;;;5.74;100.00;100864.84;4951953;28;20091;-84
2022/12/18 10:55:58;;;;;;;16.90;4.72;;;;;;;5.23;100.00;100754.81;4953553;29;20408;-84
2022/12/18 10:58:39;;;;;;;13.18;3.90;;;;;;;5.60;100.00;100806.19;4955003;29;20050;-85
2022/12/18 11:01:17;;;;;;;16.70;4.22;;;;;;;5.78;100.00;100850.94;4959228;28;20497;-84
2022/12/18 11:03:55;;;;;;;20.65;4.50;;;;;;;5.50;100.00;100787.28;4942514;28;20097;-85
2022/12/18 11:06:28;;;;;;;15.25;3.65;;;;;;;5.74;100.00;100779.09;4956396;28;20052;-85
2022/12/18 11:09:01;;;;;;;13.18;3.25;;;;;;;5.94;100.00;100835.97;4956576;28;20051;-85
2022/12/18 11:11:33;;;;;;;16.60;5.00;;;;;;;5.61;100.00;100786.25;4964092;29;20133;-85
2022/12/18 11:14:30;;;;;;;23.17;6.40;;;;;;;5.81;100.00;100780.75;4965068;28;20062;-84
2022/12/18 11:16:59;;;;;;;13.35;4.30;;;;;;;5.78;100.00;100776.44;4967853;28;20470;-85
2022/12/18 11:19:53;;;;;;;13.88;3.97;;;;;;;6.11;100.00;100814.88;4967609;28;20456;-82
2022/12/18 11:22:40;;;;;;;16.77;5.20;;;;;;;6.01;100.00;100752.69;4971779;28;20078;-85
2022/12/18 11:25:19;;;;;;;20.73;5.82;;;;;;;6.10;100.00;100808.00;4960023;28;20055;-84
2022/12/18 11:28:03;;;;;;;19.58;4.05;;;;;;;5.69;100.00;100753.22;4955708;28;20110;-85
2022/12/18 11:30:33;;;;;;;14.77;3.85;;;;;;;5.80;100.00;100738.28;4949223;28;20051;-84
2022/12/18 11:33:14;;;;;;;20.30;4.00;;;;;;;5.97;100.00;100771.81;4957616;29;20043;-83
2022/12/18 11:35:59;;;;;;;12.52;3.55;;;;;;;5.93;100.00;100764.91;4958380;28;20453;-85
2022/12/18 11:38:31;;;;;;;14.43;4.45;;;;;;;5.84;100.00;100765.09;4954631;28;20106;-82
2022/12/18 11:41:14;;;;;;;18.17;3.90;;;;;;;5.73;100.00;100725.44;4952533;29;20478;-83
2022/12/18 11:43:49;;;;;;;15.07;3.60;;;;;;;5.69;100.00;100702.13;4948738;28;20051;-82